createdAt,value
2022-10-22T00:03:50.955Z,5.07
2022-10-22T00:07:52.552Z,6.05
2022-10-22T00:11:54.306Z,6.38
2022-10-22T00:15:56.680Z,5.65
2022-10-22T00:19:58.832Z,5.97
2022-10-22T00:24:00.536Z,3.70
2022-10-22T00:28:03.036Z,5.35
2022-10-22T00:32:06.125Z,7.25
2022-10-22T00:36:08.458Z,6.50
2022-10-22T00:40:11.158Z,4.80
2022-10-22T00:44:50.385Z,4.38
2022-10-22T00:48:53.415Z,5.05
2022-10-22T00:52:56.350Z,2.75
2022-10-22T00:56:57.990Z,3.75
2022-10-22T01:00:59.707Z,2.28
2022-10-22T01:05:01.286Z,3.72
2022-10-22T01:09:24.864Z,4.22
2022-10-22T01:13:41.632Z,2.35
2022-10-22T01:17:50.607Z,3.25
2022-10-22T01:21:59.587Z,3.08
2022-10-22T01:26:17.481Z,3.17
2022-10-22T01:30:19.615Z,4.57
2022-10-22T01:34:23.716Z,2.27
2022-10-22T01:38:26.432Z,2.22
2022-10-22T01:42:28.169Z,6.43
2022-10-22T01:46:29.874Z,1.13
2022-10-22T01:50:37.033Z,6.05
2022-10-22T01:54:46.809Z,3.92
2022-10-22T01:59:05.322Z,2.10
2022-10-22T02:03:18.618Z,2.42
2022-10-22T02:07:29.112Z,4.43
2022-10-22T02:11:30.890Z,3.28
2022-10-22T02:15:35.475Z,3.13
2022-10-22T02:20:06.968Z,1.98
2022-10-22T02:24:08.942Z,1.92
2022-10-22T02:28:22.433Z,2.63
2022-10-22T02:32:28.439Z,4.35
2022-10-22T02:36:30.540Z,2.20
2022-10-22T02:40:32.756Z,3.67
2022-10-22T02:44:34.313Z,3.13
2022-10-22T02:48:35.992Z,3.30
2022-10-22T02:52:38.917Z,3.97
2022-10-22T02:56:40.770Z,3.42
2022-10-22T03:00:42.560Z,5.40
2022-10-22T03:04:44.241Z,3.65
2022-10-22T03:08:45.930Z,2.47
2022-10-22T03:12:48.331Z,2.92
2022-10-22T03:16:49.937Z,3.15
2022-10-22T03:21:06.329Z,3.55
2022-10-22T03:25:15.910Z,3.38
2022-10-22T03:29:17.835Z,1.77
2022-10-22T03:33:19.449Z,1.38
2022-10-22T03:37:23.012Z,1.98
2022-10-22T03:45:26.131Z,1.95
2022-10-22T03:49:27.708Z,3.72
2022-10-22T03:53:29.653Z,1.67
2022-10-22T03:57:31.293Z,1.65
2022-10-22T04:01:33.012Z,3.40
2022-10-22T04:05:34.631Z,2.35
2022-10-22T04:09:36.317Z,1.70
2022-10-22T04:13:38.528Z,1.90
2022-10-22T04:17:40.383Z,7.45
2022-10-22T04:21:42.294Z,3.23
2022-10-22T04:25:43.849Z,1.90
2022-10-22T04:29:45.375Z,2.42
2022-10-22T04:33:47.311Z,7.47
2022-10-22T04:37:49.598Z,3.67
2022-10-22T04:41:51.179Z,2.17
2022-10-22T04:45:52.726Z,3.97
2022-10-22T04:49:54.311Z,2.85
2022-10-22T04:53:55.900Z,2.75
2022-10-22T04:57:57.522Z,1.25
2022-10-22T05:01:59.025Z,2.65
2022-10-22T05:06:02.005Z,2.10
2022-10-22T05:10:03.954Z,3.88
2022-10-22T05:14:06.518Z,1.90
2022-10-22T05:18:08.109Z,1.35
2022-10-22T05:22:09.778Z,2.38
2022-10-22T05:26:13.046Z,1.83
2022-10-22T05:30:14.696Z,1.63
2022-10-22T05:34:16.913Z,4.18
2022-10-22T05:38:18.965Z,2.72
2022-10-22T05:42:20.600Z,1.63
2022-10-22T05:46:23.492Z,2.92
2022-10-22T05:54:26.693Z,1.42
2022-10-22T05:58:28.295Z,1.40
2022-10-22T06:02:29.892Z,3.08
2022-10-22T06:06:37.374Z,1.77
2022-10-22T06:10:42.600Z,1.30
2022-10-22T06:14:44.669Z,3.20
2022-10-22T06:18:46.302Z,2.50
2022-10-22T06:22:48.381Z,4.00
2022-10-22T06:26:51.409Z,1.85
2022-10-22T06:34:54.681Z,2.95
2022-10-22T06:38:56.675Z,3.03
2022-10-22T06:43:00.133Z,1.57
2022-10-22T06:47:02.326Z,1.92
2022-10-22T06:51:05.946Z,2.30
2022-10-22T06:55:07.762Z,2.83
2022-10-22T06:59:09.330Z,1.80
2022-10-22T07:03:14.278Z,1.30
2022-10-22T07:07:16.294Z,1.67
2022-10-22T07:11:20.935Z,2.80
2022-10-22T07:15:22.459Z,2.55
2022-10-22T07:19:23.995Z,1.30
2022-10-22T07:23:26.283Z,2.95
2022-10-22T07:27:28.668Z,1.55
2022-10-22T07:31:30.943Z,4.07
2022-10-22T07:35:32.835Z,5.15
2022-10-22T07:39:34.560Z,3.00
2022-10-22T07:43:36.088Z,2.13
2022-10-22T07:47:37.688Z,0.93
2022-10-22T07:51:39.418Z,1.63
2022-10-22T07:55:40.964Z,2.25
2022-10-22T07:59:42.547Z,2.40
2022-10-22T08:03:44.483Z,1.42
2022-10-22T08:07:46.166Z,1.75
2022-10-22T08:11:47.774Z,1.27
2022-10-22T08:15:51.460Z,2.10
2022-10-22T08:19:56.582Z,3.47
2022-10-22T08:23:58.717Z,4.53
2022-10-22T08:28:00.361Z,1.90
2022-10-22T08:32:02.940Z,3.88
2022-10-22T08:36:05.660Z,4.25
2022-10-22T08:40:07.720Z,2.97
2022-10-22T08:44:24.716Z,1.53
2022-10-22T08:48:44.361Z,2.40
2022-10-22T08:52:53.715Z,3.40
2022-10-22T08:57:15.046Z,1.30
2022-10-22T09:01:37.952Z,2.55
2022-10-22T09:10:13.401Z,1.10
2022-10-22T09:14:20.240Z,0.97
2022-10-22T09:18:41.997Z,2.60
2022-10-22T09:22:56.135Z,0.65
2022-10-22T09:26:57.913Z,2.30
2022-10-22T09:30:59.539Z,1.52
2022-10-22T09:35:01.265Z,2.08
2022-10-22T09:39:04.296Z,2.15
2022-10-22T09:43:05.901Z,2.63
2022-10-22T09:47:42.590Z,2.50
2022-10-22T09:51:56.325Z,3.58
2022-10-22T09:56:00.722Z,2.35
2022-10-22T10:00:02.277Z,2.42
2022-10-22T10:04:14.948Z,2.97
2022-10-22T10:08:17.771Z,1.10
2022-10-22T10:16:49.778Z,1.20
2022-10-22T10:21:06.191Z,1.88
2022-10-22T10:25:35.951Z,2.13
2022-10-22T10:30:00.888Z,1.30
2022-10-22T10:34:17.604Z,10.55
2022-10-22T10:38:48.634Z,2.05
2022-10-22T10:43:01.908Z,4.80
2022-10-22T10:47:31.913Z,6.05
2022-10-22T10:51:57.842Z,4.93
2022-10-22T10:56:21.824Z,3.92
2022-10-22T11:00:24.026Z,5.47
2022-10-22T11:04:47.176Z,3.17
2022-10-22T11:13:17.020Z,10.27
2022-10-22T11:17:21.684Z,2.47
2022-10-22T11:21:34.330Z,6.03
2022-10-22T11:25:44.077Z,3.72
2022-10-22T11:29:52.399Z,6.18
2022-10-22T11:34:04.943Z,6.95
2022-10-22T11:38:16.196Z,4.82
2022-10-22T11:42:34.439Z,3.47
2022-10-22T11:46:38.999Z,3.05
2022-10-22T11:50:43.418Z,2.72
2022-10-22T11:54:44.980Z,3.85
2022-10-22T11:58:50.860Z,4.72
2022-10-22T12:03:06.290Z,2.72
2022-10-22T12:07:32.439Z,2.85
2022-10-22T12:11:49.459Z,2.05
2022-10-22T12:15:58.925Z,4.35
2022-10-22T12:20:12.742Z,5.15
2022-10-22T12:24:17.143Z,3.72
2022-10-22T12:28:19.092Z,5.65
2022-10-22T12:32:21.805Z,4.50
2022-10-22T12:36:26.152Z,2.72
2022-10-22T12:40:30.557Z,6.20
2022-10-22T12:44:33.170Z,4.10
2022-10-22T12:48:40.196Z,6.53
2022-10-22T12:52:42.556Z,4.18
2022-10-22T12:56:47.143Z,3.00
2022-10-22T13:00:49.397Z,3.40
2022-10-22T13:05:15.939Z,4.05
2022-10-22T13:09:22.514Z,5.50
2022-10-22T13:13:45.695Z,3.17
2022-10-22T13:17:49.014Z,2.00
2022-10-22T13:21:50.543Z,3.97
2022-10-22T13:26:12.433Z,1.88
2022-10-22T13:30:33.913Z,3.80
2022-10-22T13:34:36.395Z,2.72
2022-10-22T13:42:40.184Z,2.92
2022-10-22T13:46:43.437Z,4.70
2022-10-22T13:54:48.722Z,6.78
2022-10-22T13:58:50.627Z,2.22
2022-10-22T14:02:58.213Z,3.93
2022-10-22T14:07:03.977Z,5.45
2022-10-22T14:11:06.777Z,4.53
2022-10-22T14:15:11.163Z,4.90
2022-10-22T14:19:18.060Z,6.35
2022-10-22T14:23:22.194Z,4.22
2022-10-22T14:27:23.718Z,3.80
2022-10-22T14:31:25.934Z,5.50
2022-10-22T14:35:27.789Z,5.05
2022-10-22T14:39:29.527Z,4.70
2022-10-22T14:43:31.431Z,1.77
2022-10-22T14:47:33.250Z,4.87
2022-10-22T14:51:34.806Z,4.63
2022-10-22T14:55:36.558Z,3.17
2022-10-22T14:59:38.157Z,4.18
2022-10-22T15:03:40.024Z,3.70
2022-10-22T15:07:42.624Z,2.90
2022-10-22T15:11:44.507Z,5.10
2022-10-22T15:15:46.042Z,7.28
2022-10-22T15:19:47.604Z,7.47
2022-10-22T15:23:50.714Z,3.40
2022-10-22T15:27:54.865Z,3.85
2022-10-22T15:32:01.262Z,5.60
2022-10-22T15:36:14.450Z,4.18
2022-10-22T15:40:16.104Z,2.90
2022-10-22T15:44:20.377Z,13.90
2022-10-22T15:48:21.918Z,7.75
2022-10-22T15:52:23.535Z,6.43
2022-10-22T15:56:29.355Z,9.48
2022-10-22T16:00:34.415Z,11.93
2022-10-22T16:04:36.018Z,7.32
2022-10-22T16:08:38.489Z,6.47
2022-10-22T16:12:41.524Z,6.75
2022-10-22T16:16:50.303Z,8.00
2022-10-22T16:20:51.887Z,5.05
2022-10-22T16:24:53.531Z,6.13
2022-10-22T16:28:56.321Z,11.80
2022-10-22T16:32:57.865Z,9.13
2022-10-22T16:36:59.760Z,8.68
2022-10-22T16:41:21.851Z,12.75
2022-10-22T16:45:23.430Z,12.15
2022-10-22T16:49:24.970Z,20.00
2022-10-22T16:53:26.571Z,9.00
2022-10-22T16:57:28.860Z,10.55
2022-10-22T17:01:30.746Z,16.90
2022-10-22T17:05:35.618Z,9.75
2022-10-22T17:09:37.215Z,15.43
2022-10-22T17:13:41.193Z,8.20
2022-10-22T17:17:43.109Z,15.77
2022-10-22T17:21:44.707Z,9.93
2022-10-22T17:25:46.303Z,9.57
2022-10-22T17:29:47.881Z,18.08
2022-10-22T17:33:51.806Z,13.05
2022-10-22T17:37:53.390Z,17.75
2022-10-22T17:41:54.947Z,8.52
2022-10-22T17:46:07.469Z,9.88
2022-10-22T17:50:09.742Z,7.05
2022-10-22T17:54:12.847Z,11.88
2022-10-22T17:58:14.450Z,7.20
2022-10-22T18:02:17.993Z,12.80
2022-10-22T18:06:21.410Z,7.10
2022-10-22T18:10:25.320Z,6.53
2022-10-22T18:14:26.864Z,5.90
2022-10-22T18:18:28.818Z,6.53
2022-10-22T18:22:33.348Z,17.33
2022-10-22T18:26:34.909Z,5.80
2022-10-22T18:30:38.420Z,10.43
2022-10-22T18:34:40.727Z,8.43
2022-10-22T18:38:42.439Z,9.20
2022-10-22T18:42:45.023Z,14.40
2022-10-22T18:50:57.607Z,8.25
2022-10-22T18:54:59.365Z,5.40
2022-10-22T18:59:00.926Z,8.18
2022-10-22T19:03:03.366Z,13.10
2022-10-22T19:07:05.535Z,8.57
2022-10-22T19:11:12.769Z,11.75
2022-10-22T19:15:14.379Z,21.98
2022-10-22T19:19:19.267Z,8.82
2022-10-22T19:23:20.960Z,11.63
2022-10-22T19:27:22.635Z,8.65
2022-10-22T19:31:26.153Z,11.95
2022-10-22T19:35:27.793Z,6.90
2022-10-22T19:39:29.402Z,13.77
2022-10-22T19:43:30.943Z,12.00
2022-10-22T19:47:32.531Z,8.45
2022-10-22T19:51:34.542Z,7.32
2022-10-22T19:55:36.135Z,7.63
2022-10-22T19:59:37.698Z,7.32
2022-10-22T20:03:40.307Z,7.15
2022-10-22T20:07:42.227Z,6.28
2022-10-22T20:11:44.391Z,12.70
2022-10-22T20:15:50.003Z,12.15
2022-10-22T20:19:51.510Z,13.63
2022-10-22T20:23:54.250Z,12.45
2022-10-22T20:27:55.973Z,10.98
2022-10-22T20:31:57.546Z,17.17
2022-10-22T20:36:01.554Z,16.50
2022-10-22T20:40:03.362Z,18.65
2022-10-22T20:44:05.635Z,5.38
2022-10-22T20:48:07.676Z,11.05
2022-10-22T20:52:09.513Z,8.85
2022-10-22T20:56:12.518Z,13.60
2022-10-22T21:00:14.513Z,12.48
2022-10-22T21:04:17.495Z,15.70
2022-10-22T21:12:20.654Z,8.80
2022-10-22T21:16:22.925Z,8.33
2022-10-22T21:20:24.993Z,8.75
2022-10-22T21:24:26.916Z,7.60
2022-10-22T21:32:51.772Z,9.00
2022-10-22T21:36:53.407Z,5.60
2022-10-22T21:40:55.020Z,9.05
2022-10-22T21:44:56.703Z,8.30
2022-10-22T21:49:02.034Z,9.70
2022-10-22T21:53:03.718Z,10.55
2022-10-22T21:57:05.593Z,9.55
2022-10-22T22:01:07.410Z,6.28
2022-10-22T22:05:09.584Z,10.82
2022-10-22T22:09:11.285Z,12.73
2022-10-22T22:13:12.870Z,14.30
2022-10-22T22:17:16.511Z,10.38
2022-10-22T22:21:20.741Z,8.55
2022-10-22T22:25:22.307Z,9.40
2022-10-22T22:29:24.608Z,8.02
2022-10-22T22:33:27.129Z,15.00
2022-10-22T22:37:28.689Z,10.40
2022-10-22T22:41:30.399Z,8.57
2022-10-22T22:45:32.094Z,9.30
2022-10-22T22:49:35.504Z,11.98
2022-10-22T22:53:37.092Z,8.88
2022-10-22T22:57:38.699Z,10.10
2022-10-22T23:01:40.561Z,3.92
2022-10-22T23:05:42.607Z,7.60
2022-10-22T23:09:44.293Z,13.30
2022-10-22T23:13:46.048Z,6.90
2022-10-22T23:17:47.692Z,7.00
2022-10-22T23:21:52.670Z,16.40
2022-10-22T23:25:55.980Z,8.98
2022-10-22T23:29:58.299Z,16.73
2022-10-22T23:34:00.231Z,12.65
2022-10-22T23:38:01.938Z,18.65
2022-10-22T23:42:03.770Z,12.77
2022-10-22T23:46:07.335Z,12.60
2022-10-22T23:50:09.029Z,5.95
2022-10-22T23:54:16.406Z,12.25
2022-10-22T23:58:18.106Z,6.70
